Time;durP1;ratioP1;P1;durP2;ratioP2;P2;SDS_P1;SDS_P2;PMS_P1;PMS_P2;Temp;Humidity;BMP_temperature;BMP_pressure;BME280_temperature;BME280_humidity;BME280_pressure;Samples;Min_cycle;Max_cycle;Signal;HPM_P1;HPM_P2
2022/12/28 00:01:23;;;;;;;;;;;;;;;5.06;100.00;101657.25;4993675;28;19913;-64
2022/12/28 00:03:49;;;;;;;;;;;;;;;5.05;100.00;101662.38;4988189;28;20415;-64
2022/12/28 00:06:15;;;;;;;;;;;;;;;5.07;100.00;101660.69;4995723;28;19944;-64
2022/12/28 00:08:40;;;;;;;;;;;;;;;5.11;100.00;101649.59;4995052;28;20331;-66
2022/12/28 00:11:07;;;;;;;;;;;;;;;5.12;100.00;101634.19;4993097;28;20284;-66
2022/12/28 00:13:33;;;;;;;;;;;;;;;5.14;100.00;101640.22;4993452;28;19967;-66
2022/12/28 00:16:05;;;;;;;;;;;;;;;5.18;100.00;101632.56;4992899;28;19963;-67
2022/12/28 00:18:32;;;;;;;;;;;;;;;5.19;100.00;101627.41;4987664;28;19913;-67
2022/12/28 00:20:58;;;;;;;;;;;;;;;5.20;100.00;101620.56;4987710;28;19952;-66
2022/12/28 00:23:23;;;;;;;;;;;;;;;5.21;100.00;101615.44;4974714;28;19910;-66
2022/12/28 00:25:48;;;;;;;;;;;;;;;5.23;100.00;101610.31;4992006;28;19972;-66
2022/12/28 00:28:14;;;;;;;;;;;;;;;5.23;100.00;101600.03;4992474;28;19913;-66
2022/12/28 00:30:39;;;;;;;;;;;;;;;5.24;100.00;101594.06;4976709;28;19956;-66
2022/12/28 00:33:04;;;;;;;;;;;;;;;5.22;100.00;101599.19;4990598;28;19921;-66
2022/12/28 00:35:29;;;;;;;;;;;;;;;5.20;100.00;101594.84;4993280;28;20004;-66
2022/12/28 00:37:55;;;;;;;;;;;;;;;5.17;100.00;101585.44;4993382;28;19920;-66
2022/12/28 00:40:20;;;;;;;;;;;;;;;5.13;100.00;101583.66;4992517;28;19918;-66
2022/12/28 00:42:45;;;;;;;;;;;;;;;5.11;100.00;101572.53;4991442;28;19944;-66
2022/12/28 00:45:10;;;;;;;;;;;;;;;5.08;100.00;101568.19;4992315;28;20037;-66
2022/12/28 00:47:35;;;;;;;;;;;;;;;5.11;100.00;101549.41;4992445;28;20266;-66
2022/12/28 00:50:01;;;;;;;;;;;;;;;5.13;100.00;101557.97;4993671;28;20276;-66
2022/12/28 00:52:26;;;;;;;;;;;;;;;5.16;100.00;101543.44;4992478;28;20347;-66
2022/12/28 00:54:51;;;;;;;;;;;;;;;5.20;100.00;101548.59;4991865;28;19945;-66
2022/12/28 00:57:16;;;;;;;;;;;;;;;5.22;100.00;101558.06;4992046;28;20000;-66
2022/12/28 00:59:41;;;;;;;;;;;;;;;5.25;100.00;101545.25;4975754;28;19924;-66
2022/12/28 01:02:07;;;;;;;;;;;;;;;5.26;100.00;101546.94;4991217;28;20402;-66
2022/12/28 01:04:32;;;;;;;;;;;;;;;5.30;100.00;101537.56;4991070;28;19918;-66
2022/12/28 01:06:57;;;;;;;;;;;;;;;5.30;100.00;101529.88;4987754;28;19917;-66
2022/12/28 01:09:22;;;;;;;;;;;;;;;5.34;100.00;101527.31;4990871;28;19918;-66
2022/12/28 01:11:48;;;;;;;;;;;;;;;5.38;100.00;101536.81;4992970;28;19913;-66
2022/12/28 01:14:13;;;;;;;;;;;;;;;5.40;100.00;101529.94;4992037;28;19963;-67
2022/12/28 01:16:38;;;;;;;;;;;;;;;5.44;100.00;101528.28;4983206;28;19941;-67
2022/12/28 01:19:05;;;;;;;;;;;;;;;5.48;100.00;101525.72;4992506;28;19913;-67
2022/12/28 01:21:32;;;;;;;;;;;;;;;5.50;100.00;101521.47;4992275;28;20404;-67
2022/12/28 01:23:59;;;;;;;;;;;;;;;5.50;100.00;101528.31;4991952;28;20009;-67
2022/12/28 01:26:25;;;;;;;;;;;;;;;5.50;100.00;101518.91;4992073;28;20372;-67
2022/12/28 01:28:50;;;;;;;;;;;;;;;5.52;100.00;101509.50;4992501;28;19914;-67
2022/12/28 01:31:16;;;;;;;;;;;;;;;5.54;100.00;101504.34;4975472;28;19917;-67
2022/12/28 01:33:42;;;;;;;;;;;;;;;5.55;100.00;101499.22;4993271;28;20399;-67
2022/12/28 01:36:08;;;;;;;;;;;;;;;5.59;100.00;101502.69;4990690;28;19945;-67
2022/12/28 01:38:34;;;;;;;;;;;;;;;5.61;100.00;101489.81;4992203;28;19949;-67
2022/12/28 01:40:59;;;;;;;;;;;;;;;5.64;100.00;101492.41;4991604;28;19948;-66
2022/12/28 01:43:43;;;;;;;;;;;;;;;5.67;100.00;101489.84;4990870;28;20009;-67
2022/12/28 01:46:14;;;;;;;;;;;;;;;5.68;100.00;101481.28;4991577;28;19918;-67
2022/12/28 01:48:44;;;;;;;;;;;;;;;5.69;100.00;101468.44;4991693;28;20000;-64
2022/12/28 01:51:09;;;;;;;;;;;;;;;5.74;100.00;101474.47;4993762;28;19917;-64
2022/12/28 01:53:34;;;;;;;;;;;;;;;5.75;100.00;101463.34;4993698;28;19914;-64
2022/12/28 01:56:00;;;;;;;;;;;;;;;5.77;100.00;101460.78;4993231;28;19921;-63
2022/12/28 01:58:28;;;;;;;;;;;;;;;5.81;100.00;101447.94;4993234;28;19917;-63
2022/12/28 02:00:53;;;;;;;;;;;;;;;5.83;100.00;101451.38;4993270;28;19913;-64
2022/12/28 02:03:20;;;;;;;;;;;;;;;5.87;100.00;101434.25;4992733;28;19982;-64
2022/12/28 02:05:51;;;;;;;;;;;;;;;5.89;100.00;101436.00;4993185;28;19918;-64
2022/12/28 02:08:23;;;;;;;;;;;;;;;5.92;100.00;101430.91;4992472;28;19917;-64
2022/12/28 02:10:49;;;;;;;;;;;;;;;5.92;100.00;101414.59;4994511;28;19910;-64
2022/12/28 02:13:15;;;;;;;;;;;;;;;5.96;100.00;101413.75;4991952;28;19914;-64
2022/12/28 02:15:40;;;;;;;;;;;;;;;5.99;100.00;101405.19;4990135;28;19913;-64
2022/12/28 02:18:05;;;;;;;;;;;;;;;6.01;100.00;101403.47;4991168;28;19920;-64
2022/12/28 02:20:42;;;;;;;;;;;;;;;6.01;100.00;101408.59;4991603;28;19913;-67
2022/12/28 02:23:26;;;;;;;;;;;;;;;6.04;100.00;101391.47;4991359;28;19914;-66
2022/12/28 02:26:00;;;;;;;;;;;;;;;6.05;100.00;101380.34;4990307;28;19918;-67
2022/12/28 02:28:44;;;;;;;;;;;;;;;6.16;100.00;101393.22;4991437;28;19952;-67
2022/12/28 02:31:17;;;;;;;;;;;;;;;6.08;100.00;101382.91;4989059;28;19914;-67
2022/12/28 02:33:47;;;;;;;;;;;;;;;6.05;100.00;101375.19;4990909;28;20008;-67
2022/12/28 02:36:24;;;;;;;;;;;;;;;6.10;100.00;101363.19;4990129;28;19913;-67
2022/12/28 02:39:12;;;;;;;;;;;;;;;6.09;100.00;101368.31;4991771;28;19968;-67
2022/12/28 02:41:38;;;;;;;;;;;;;;;6.15;100.00;101340.88;4988503;28;19920;-67
2022/12/28 02:44:04;;;;;;;;;;;;;;;6.20;100.00;101353.78;4986841;28;19960;-67
2022/12/28 02:52:15;;;;;;;;;;;;;;;6.24;100.00;101342.63;4990445;28;19968;-67
2022/12/28 02:57:42;;;;;;;;;;;;;;;6.20;100.00;101341.78;4990912;28;20007;-67
2022/12/28 03:00:09;;;;;;;;;;;;;;;6.15;100.00;101329.72;4991294;28;19967;-67
2022/12/28 03:02:37;;;;;;;;;;;;;;;6.14;100.00;101344.31;4990454;28;20001;-67
2022/12/28 03:05:09;;;;;;;;;;;;;;;6.07;100.00;101337.47;4971450;28;19929;-67
2022/12/28 03:08:18;;;;;;;;;;;;;;;6.07;100.00;101336.59;4989165;28;19973;-67
2022/12/28 03:10:47;;;;;;;;;;;;;;;6.06;100.00;101328.03;4991022;28;20273;-67
2022/12/28 03:16:05;;;;;;;;;;;;;;;6.02;100.00;101322.84;4990460;28;19987;-67
2022/12/28 03:32:21;;;;;;;;;;;;;;;6.05;100.00;101310.84;4988544;28;19964;-67
2022/12/28 03:34:47;;;;;;;;;;;;;;;6.04;100.00;101309.13;4990834;28;19937;-67
2022/12/28 03:37:16;;;;;;;;;;;;;;;6.07;100.00;101306.59;4990127;28;20384;-67
2022/12/28 03:39:43;;;;;;;;;;;;;;;6.06;100.00;101307.44;4990849;28;19979;-67
2022/12/28 03:45:15;;;;;;;;;;;;;;;6.08;100.00;101297.13;4990939;28;20022;-67
2022/12/28 03:47:43;;;;;;;;;;;;;;;6.07;100.00;101291.13;4991399;28;19913;-68
2022/12/28 03:50:08;;;;;;;;;;;;;;;6.09;100.00;101291.13;4990389;28;19992;-68
2022/12/28 03:52:34;;;;;;;;;;;;;;;6.14;100.00;101300.56;4990961;28;20084;-68
2022/12/28 03:54:59;;;;;;;;;;;;;;;6.11;100.00;101290.28;4988090;28;20073;-68
2022/12/28 03:57:24;;;;;;;;;;;;;;;6.16;100.00;101275.69;4989191;28;20340;-67
2022/12/28 03:59:49;;;;;;;;;;;;;;;6.15;100.00;101273.97;4976745;28;20292;-67
2022/12/28 04:02:15;;;;;;;;;;;;;;;6.14;100.00;101279.97;4992103;28;19914;-67
2022/12/28 04:04:40;;;;;;;;;;;;;;;6.19;100.00;101273.13;4991631;28;19918;-67
2022/12/28 04:07:05;;;;;;;;;;;;;;;6.20;100.00;101266.28;4993617;28;19925;-67
2022/12/28 04:09:31;;;;;;;;;;;;;;;6.23;100.00;101256.81;4992314;28;19928;-67
2022/12/28 04:11:56;;;;;;;;;;;;;;;6.25;100.00;101256.84;4994083;28;19964;-67
2022/12/28 04:14:21;;;;;;;;;;;;;;;6.28;100.00;101264.53;4993979;28;20296;-67
2022/12/28 04:16:47;;;;;;;;;;;;;;;6.27;100.00;101258.56;4993015;28;19968;-68
2022/12/28 04:19:12;;;;;;;;;;;;;;;6.28;100.00;101259.41;4983024;28;19964;-68
2022/12/28 04:21:37;;;;;;;;;;;;;;;6.30;100.00;101265.41;4992988;28;20012;-68
2022/12/28 04:24:02;;;;;;;;;;;;;;;6.33;100.00;101261.13;4994068;28;19917;-68
2022/12/28 04:26:28;;;;;;;;;;;;;;;6.33;100.00;101253.41;4993150;28;19917;-68
2022/12/28 04:28:53;;;;;;;;;;;;;;;6.43;100.00;101269.69;4994068;28;20419;-67
2022/12/28 04:31:18;;;;;;;;;;;;;;;6.40;100.00;101258.56;4992863;28;19920;-68
2022/12/28 04:33:43;;;;;;;;;;;;;;;6.51;100.00;101257.69;4993091;28;20364;-68
2022/12/28 04:36:13;;;;;;;;;;;;;;;6.47;100.00;101255.13;4992561;28;20340;-67
2022/12/28 04:38:39;;;;;;;;;;;;;;;6.49;100.00;101261.13;4983715;28;19968;-67
2022/12/28 04:41:05;;;;;;;;;;;;;;;6.53;100.00;101252.53;4993539;28;19917;-67
2022/12/28 04:43:30;;;;;;;;;;;;;;;6.52;100.00;101256.84;4994082;28;19921;-68
2022/12/28 04:45:59;;;;;;;;;;;;;;;6.55;100.00;101248.25;4991940;28;19940;-67
2022/12/28 04:48:25;;;;;;;;;;;;;;;6.57;100.00;101247.38;4993171;28;20340;-67
2022/12/28 04:50:51;;;;;;;;;;;;;;;6.58;100.00;101248.25;4993439;28;20392;-67
2022/12/28 04:53:16;;;;;;;;;;;;;;;6.60;100.00;101242.25;4993404;28;19920;-67
2022/12/28 04:55:41;;;;;;;;;;;;;;;6.70;100.00;101243.94;4975059;28;20134;-67
2022/12/28 04:58:06;;;;;;;;;;;;;;;6.67;100.00;101241.38;4992888;28;19921;-67
2022/12/28 05:00:32;;;;;;;;;;;;;;;6.73;100.00;101238.78;4991146;28;19933;-67
2022/12/28 05:03:00;;;;;;;;;;;;;;;6.81;100.00;101236.19;4992123;28;19914;-67
2022/12/28 05:05:26;;;;;;;;;;;;;;;6.81;100.00;101228.47;4993257;28;19914;-67
2022/12/28 05:07:51;;;;;;;;;;;;;;;6.96;100.00;101223.25;4992849;28;19972;-67
2022/12/28 05:10:16;;;;;;;;;;;;;;;6.88;100.00;101230.16;4992140;28;20034;-67
2022/12/28 05:12:42;;;;;;;;;;;;;;;6.88;100.00;101242.19;4992305;28;19955;-67
2022/12/28 05:15:07;;;;;;;;;;;;;;;6.89;100.00;101238.75;4992135;28;19920;-67
2022/12/28 05:17:32;;;;;;;;;;;;;;;6.91;100.00;101231.88;4991628;28;19917;-67
2022/12/28 05:19:58;;;;;;;;;;;;;;;6.88;100.00;101237.03;4988413;28;19910;-67
2022/12/28 05:22:23;;;;;;;;;;;;;;;6.90;100.00;101241.31;4992652;28;19909;-67
2022/12/28 05:24:48;;;;;;;;;;;;;;;6.87;100.00;101236.19;4993134;28;19917;-67
2022/12/28 05:27:13;;;;;;;;;;;;;;;6.90;100.00;101236.16;4992218;28;19920;-67
2022/12/28 05:29:38;;;;;;;;;;;;;;;6.89;100.00;101229.28;4996132;28;19925;-67
2022/12/28 05:32:04;;;;;;;;;;;;;;;6.89;100.00;101237.00;4991074;28;19913;-67
2022/12/28 05:34:29;;;;;;;;;;;;;;;6.89;100.00;101234.44;4990776;28;19913;-67
2022/12/28 05:36:54;;;;;;;;;;;;;;;6.92;100.00;101237.03;4992613;28;19921;-68
2022/12/28 05:39:20;;;;;;;;;;;;;;;6.90;100.00;101237.88;4992899;28;19914;-68
2022/12/28 05:41:45;;;;;;;;;;;;;;;6.93;100.00;101231.00;4992170;28;19972;-68
2022/12/28 05:44:10;;;;;;;;;;;;;;;6.95;100.00;101236.16;4992832;28;20291;-68
2022/12/28 05:46:35;;;;;;;;;;;;;;;6.95;100.00;101228.44;4991532;28;19971;-68
2022/12/28 05:49:01;;;;;;;;;;;;;;;6.93;100.00;101225.00;4990548;28;19924;-68
2022/12/28 05:51:28;;;;;;;;;;;;;;;6.93;100.00;101225.84;4990847;28;19906;-69
2022/12/28 05:53:53;;;;;;;;;;;;;;;6.91;100.00;101222.41;4987639;28;19921;-69
2022/12/28 05:56:20;;;;;;;;;;;;;;;6.97;100.00;101217.25;4988855;28;19906;-69
2022/12/28 05:58:46;;;;;;;;;;;;;;;6.96;100.00;101214.69;4996652;28;19914;-69
2022/12/28 06:01:13;;;;;;;;;;;;;;;6.95;100.00;101203.53;4992108;28;19921;-69
2022/12/28 06:03:38;;;;;;;;;;;;;;;7.02;100.00;101209.50;4991374;28;19914;-69
2022/12/28 06:06:08;;;;;;;;;;;;;;;7.00;100.00;101193.19;4990455;28;19929;-69
2022/12/28 06:08:33;;;;;;;;;;;;;;;6.97;100.00;101206.94;4986334;28;19969;-69
2022/12/28 06:11:00;;;;;;;;;;;;;;;7.00;100.00;101194.06;4990001;28;20015;-69
2022/12/28 06:13:25;;;;;;;;;;;;;;;6.99;100.00;101200.06;4990784;28;19914;-69
2022/12/28 06:15:50;;;;;;;;;;;;;;;7.00;100.00;101190.63;4991072;28;19921;-69
2022/12/28 06:18:15;;;;;;;;;;;;;;;7.01;100.00;101182.03;4992104;28;20153;-66
2022/12/28 06:20:40;;;;;;;;;;;;;;;7.01;100.00;101188.03;4993071;28;19942;-66
2022/12/28 06:23:06;;;;;;;;;;;;;;;7.02;100.00;101183.75;4992594;28;19964;-66
2022/12/28 06:25:31;;;;;;;;;;;;;;;7.05;100.00;101178.56;4990051;28;19921;-66
2022/12/28 06:27:56;;;;;;;;;;;;;;;7.04;100.00;101179.41;4993111;28;19917;-67
2022/12/28 06:30:21;;;;;;;;;;;;;;;7.05;100.00;101184.56;4992697;28;19921;-67
2022/12/28 06:32:47;;;;;;;;;;;;;;;7.07;100.00;101187.16;4990933;28;19913;-66
2022/12/28 06:35:12;;;;;;;;;;;;;;;7.06;100.00;101175.97;4992815;28;19921;-66
2022/12/28 06:37:37;;;;;;;;;;;;;;;7.09;100.00;101178.56;4990547;28;19913;-66
2022/12/28 06:40:02;;;;;;;;;;;;;;;7.13;100.00;101185.41;4993197;28;20382;-66
2022/12/28 06:42:27;;;;;;;;;;;;;;;7.11;100.00;101186.25;4991986;28;19975;-66
2022/12/28 06:44:53;;;;;;;;;;;;;;;7.11;100.00;101179.38;4992614;28;19918;-66
2022/12/28 06:47:18;;;;;;;;;;;;;;;7.17;100.00;101172.50;4993427;28;20452;-66
2022/12/28 06:49:43;;;;;;;;;;;;;;;7.20;100.00;101168.19;4992315;28;19928;-70
2022/12/28 06:52:08;;;;;;;;;;;;;;;7.20;100.00;101165.63;4989802;28;20400;-69
2022/12/28 06:54:34;;;;;;;;;;;;;;;7.18;100.00;101171.63;4989792;28;19925;-69
2022/12/28 06:56:59;;;;;;;;;;;;;;;7.17;100.00;101175.06;4997582;28;19910;-69
2022/12/28 06:59:24;;;;;;;;;;;;;;;7.18;100.00;101175.06;4991318;28;20380;-69
2022/12/28 07:01:49;;;;;;;;;;;;;;;7.20;100.00;101173.34;4988551;28;19921;-69
2022/12/28 07:04:14;;;;;;;;;;;;;;;7.21;100.00;101169.06;4990400;28;19918;-69
2022/12/28 07:06:41;;;;;;;;;;;;;;;7.21;100.00;101171.63;4989970;28;20064;-69
2022/12/28 07:09:08;;;;;;;;;;;;;;;7.20;100.00;101168.19;4990119;28;19922;-69
2022/12/28 07:11:34;;;;;;;;;;;;;;;7.19;100.00;101171.63;4990145;28;19913;-67
2022/12/28 07:13:59;;;;;;;;;;;;;;;7.21;100.00;101169.91;4990341;28;19914;-67
2022/12/28 07:16:25;;;;;;;;;;;;;;;7.23;100.00;101175.06;4990309;28;19914;-69
2022/12/28 07:18:50;;;;;;;;;;;;;;;7.25;100.00;101171.59;4990129;28;19967;-69
2022/12/28 07:21:17;;;;;;;;;;;;;;;7.24;100.00;101180.19;4990485;28;19913;-69
2022/12/28 07:23:42;;;;;;;;;;;;;;;7.28;100.00;101179.34;4990678;28;19936;-69
2022/12/28 07:26:09;;;;;;;;;;;;;;;7.26;100.00;101167.28;4990627;28;20296;-69
2022/12/28 07:28:38;;;;;;;;;;;;;;;7.28;100.00;101170.75;4991974;28;19917;-69
2022/12/28 07:31:04;;;;;;;;;;;;;;;7.28;100.00;101163.00;4989389;28;19965;-69
2022/12/28 07:33:29;;;;;;;;;;;;;;;7.33;100.00;101163.81;4991864;28;19976;-69
2022/12/28 07:35:56;;;;;;;;;;;;;;;7.40;100.00;101163.78;4990576;28;19918;-69
2022/12/28 07:38:21;;;;;;;;;;;;;;;7.33;100.00;101163.81;4993548;28;19913;-69
2022/12/28 07:40:47;;;;;;;;;;;;;;;7.32;100.00;101165.53;4994377;28;19924;-69
2022/12/28 07:43:12;;;;;;;;;;;;;;;7.36;100.00;101156.09;4995266;28;19917;-69
2022/12/28 07:45:37;;;;;;;;;;;;;;;7.36;100.00;101163.81;4995703;28;19921;-69
2022/12/28 07:48:03;;;;;;;;;;;;;;;7.34;100.00;101165.53;4976428;28;19920;-69
2022/12/28 07:50:28;;;;;;;;;;;;;;;7.36;100.00;101158.66;4991807;28;20004;-66
2022/12/28 07:52:53;;;;;;;;;;;;;;;7.40;100.00;101166.38;4996701;28;19925;-66
2022/12/28 07:55:18;;;;;;;;;;;;;;;7.43;100.00;101162.94;4984090;28;19910;-66
2022/12/28 07:57:43;;;;;;;;;;;;;;;7.41;100.00;101180.97;4995606;28;19963;-66
2022/12/28 08:00:09;;;;;;;;;;;;;;;7.42;100.00;101172.38;4996384;28;19949;-66
2022/12/28 08:02:34;;;;;;;;;;;;;;;7.41;100.00;101178.41;4979003;28;19917;-66
2022/12/28 08:04:59;;;;;;;;;;;;;;;7.52;100.00;101170.59;4987016;28;19924;-66
2022/12/28 08:07:25;;;;;;;;;;;;;;;7.45;100.00;101169.75;4997386;28;19913;-67
2022/12/28 08:09:50;;;;;;;;;;;;;;;7.46;100.00;101170.63;4996550;28;19909;-66
2022/12/28 08:12:15;;;;;;;;;;;;;;;7.46;100.00;101166.31;4995994;28;19914;-65
2022/12/28 08:14:40;;;;;;;;;;;;;;;7.47;100.00;101174.94;4993595;28;19945;-65
2022/12/28 08:17:05;;;;;;;;;;;;;;;7.46;100.00;101168.91;4995364;28;20636;-66
2022/12/28 08:19:31;;;;;;;;;;;;;;;7.46;100.00;101174.06;4994582;28;19968;-69
2022/12/28 08:21:56;;;;;;;;;;;;;;;7.48;100.00;101158.59;4995077;28;19953;-69
2022/12/28 08:24:21;;;;;;;;;;;;;;;7.51;100.00;101168.88;4992210;28;20072;-69
2022/12/28 08:26:47;;;;;;;;;;;;;;;7.51;100.00;101158.56;4992070;28;20462;-69
2022/12/28 08:29:15;;;;;;;;;;;;;;;7.52;100.00;101155.09;4992103;28;19912;-69
2022/12/28 08:31:41;;;;;;;;;;;;;;;7.51;100.00;101153.41;4993529;28;20068;-69
2022/12/28 08:34:08;;;;;;;;;;;;;;;7.54;100.00;101156.81;4989732;28;20307;-69
2022/12/28 08:36:33;;;;;;;;;;;;;;;7.60;100.00;101148.19;4998359;28;19906;-69
2022/12/28 08:38:59;;;;;;;;;;;;;;;7.58;100.00;101159.38;4994039;28;19920;-69
2022/12/28 08:41:25;;;;;;;;;;;;;;;7.58;100.00;101156.78;4991520;28;19921;-69
2022/12/28 08:43:51;;;;;;;;;;;;;;;7.62;100.00;101156.78;4993026;28;20316;-69
2022/12/28 08:46:20;;;;;;;;;;;;;;;7.62;100.00;101155.91;4994919;28;20391;-68
2022/12/28 08:48:46;;;;;;;;;;;;;;;7.63;100.00;101152.47;4992194;28;19948;-69
2022/12/28 08:51:13;;;;;;;;;;;;;;;7.65;100.00;101156.75;4992363;28;19917;-69
2022/12/28 08:53:38;;;;;;;;;;;;;;;7.69;100.00;101161.03;4993071;28;20166;-69
2022/12/28 08:56:05;;;;;;;;;;;;;;;7.75;100.00;101158.41;4992837;28;20211;-68
2022/12/28 08:58:30;;;;;;;;;;;;;;;7.78;100.00;101160.13;4992497;28;20451;-68
2022/12/28 09:00:56;;;;;;;;;;;;;;;7.81;100.00;101155.78;4994462;28;19956;-68
2022/12/28 09:03:21;;;;;;;;;;;;;;;7.83;100.00;101156.63;4977602;28;20448;-68
2022/12/28 09:05:46;;;;;;;;;;;;;;;7.84;100.00;101155.78;4982524;28;20019;-68
2022/12/28 09:08:11;;;;;;;;;;;;;;;7.91;100.00;101152.25;4985887;28;20364;-68
2022/12/28 09:10:36;;;;;;;;;;;;;;;7.88;100.00;101138.53;4994480;28;20424;-68
2022/12/28 09:13:02;;;;;;;;;;;;;;;7.91;100.00;101154.00;4975683;28;19910;-68
2022/12/28 09:15:27;;;;;;;;;;;;;;;7.93;100.00;101147.94;4993547;28;19914;-68
2022/12/28 09:17:52;;;;;;;;;;;;;;;7.96;100.00;101159.13;4993948;28;19945;-68
2022/12/28 09:20:18;;;;;;;;;;;;;;;7.91;100.00;101154.00;4993540;28;20299;-68
2022/12/28 09:22:43;;;;;;;;;;;;;;;7.91;100.00;101159.97;4992494;28;19918;-68
2022/12/28 09:25:08;;;;;;;;;;;;;;;7.91;100.00;101157.41;4993571;28;19964;-68
2022/12/28 09:27:33;;;;;;;;;;;;;;;7.90;100.00;101160.03;4975667;28;20092;-68
2022/12/28 09:29:58;;;;;;;;;;;;;;;7.88;100.00;101154.00;4991974;28;19922;-65
2022/12/28 09:32:23;;;;;;;;;;;;;;;7.89;100.00;101150.56;4994237;28;19919;-65
2022/12/28 09:34:49;;;;;;;;;;;;;;;7.96;100.00;101153.94;4999781;28;19953;-65
2022/12/28 09:37:14;;;;;;;;;;;;;;;7.91;100.00;101147.09;4994589;28;19992;-66
2022/12/28 09:39:39;;;;;;;;;;;;;;;7.96;100.00;101154.81;4995581;28;19913;-65
2022/12/28 09:42:13;;;;;;;;;;;;;;;8.11;100.00;101146.09;4994151;28;19910;-65
2022/12/28 09:44:44;;;;;;;;;;;;;;;8.03;100.00;101148.72;4992843;28;19918;-65
2022/12/28 09:47:18;;;;;;;;;;;;;;;8.06;100.00;101155.56;4994960;28;19913;-65
2022/12/28 09:49:46;;;;;;;;;;;;;;;8.09;100.00;101150.41;4993750;28;19913;-65
2022/12/28 09:52:27;;;;;;;;;;;;;;;8.10;100.00;101144.38;4994396;28;19956;-65
2022/12/28 09:54:52;;;;;;;;;;;;;;;8.13;100.00;101146.91;4982035;28;19921;-65
2022/12/28 09:57:18;;;;;;;;;;;;;;;8.19;100.00;101145.13;4988015;28;19914;-65
2022/12/28 09:59:45;;;;;;;;;;;;;;;8.21;100.00;101142.53;4995409;28;19940;-65
2022/12/28 10:02:18;;;;;;;;;;;;;;;8.23;100.00;101141.66;4994007;28;19918;-66
2022/12/28 10:04:43;;;;;;;;;;;;;;;8.23;100.00;101135.63;4993616;28;19944;-65
2022/12/28 10:07:09;;;;;;;;;;;;;;;8.31;100.00;101139.03;4992014;28;20292;-65
2022/12/28 10:09:35;;;;;;;;;;;;;;;8.29;100.00;101144.19;4994130;28;19917;-65
2022/12/28 10:12:09;;;;;;;;;;;;;;;8.32;100.00;101140.75;4994210;28;19921;-65
2022/12/28 10:14:34;;;;;;;;;;;;;;;8.32;100.00;101144.16;4992969;28;19960;-65
2022/12/28 10:17:00;;;;;;;;;;;;;;;8.30;100.00;101138.19;4992758;28;20179;-65
2022/12/28 10:19:26;;;;;;;;;;;;;;;8.32;100.00;101131.25;4994086;28;19938;-65
2022/12/28 10:21:57;;;;;;;;;;;;;;;8.32;100.00;101131.25;4986912;28;19936;-65
2022/12/28 10:24:23;;;;;;;;;;;;;;;8.39;100.00;101132.09;4993019;28;19918;-65
2022/12/28 10:26:48;;;;;;;;;;;;;;;8.33;100.00;101126.94;4993279;28;19936;-65
2022/12/28 10:29:20;;;;;;;;;;;;;;;8.30;100.00;101122.69;4992720;28;19921;-65
2022/12/28 10:32:05;;;;;;;;;;;;;;;8.32;100.00;101117.50;4991717;28;20167;-65
2022/12/28 10:34:31;;;;;;;;;;;;;;;8.29;100.00;101123.53;4985966;28;19921;-65
2022/12/28 10:37:03;;;;;;;;;;;;;;;8.30;100.00;101124.38;4980884;28;19918;-65
2022/12/28 10:39:29;;;;;;;;;;;;;;;8.31;100.00;101123.53;4993459;28;20316;-65
2022/12/28 10:41:57;;;;;;;;;;;;;;;8.30;100.00;101119.22;4988974;28;19918;-65
2022/12/28 10:44:25;;;;;;;;;;;;;;;8.32;100.00;101115.75;4985819;28;20322;-65
2022/12/28 10:46:56;;;;;;;;;;;;;;;8.31;100.00;101123.53;4986196;28;19918;-65
2022/12/28 10:49:22;;;;;;;;;;;;;;;8.32;100.00;101108.00;4994416;28;19957;-65
2022/12/28 10:51:57;;;;;;;;;;;;;;;8.31;100.00;101113.22;4988344;28;19968;-65
2022/12/28 10:54:23;;;;;;;;;;;;;;;8.28;100.00;101120.94;4994422;28;20003;-65
2022/12/28 10:56:49;;;;;;;;;;;;;;;8.28;100.00;101118.38;4974136;28;20396;-66
2022/12/28 10:59:18;;;;;;;;;;;;;;;8.26;100.00;101108.03;4993758;28;19946;-65
2022/12/28 11:01:43;;;;;;;;;;;;;;;8.38;100.00;101106.25;4992702;28;19946;-66
2022/12/28 11:04:19;;;;;;;;;;;;;;;8.31;100.00;101103.75;4993352;28;19914;-65
2022/12/28 11:06:55;;;;;;;;;;;;;;;8.26;100.00;101099.44;4990369;28;19914;-66
2022/12/28 11:09:22;;;;;;;;;;;;;;;8.27;100.00;101090.81;4996573;28;19917;-66
2022/12/28 11:11:48;;;;;;;;;;;;;;;8.28;100.00;101097.72;4992004;28;19947;-66
2022/12/28 11:14:25;;;;;;;;;;;;;;;8.26;100.00;101091.69;4997470;28;19920;-66
2022/12/28 11:16:51;;;;;;;;;;;;;;;8.24;100.00;101084.00;4991518;28;19925;-66
2022/12/28 11:19:17;;;;;;;;;;;;;;;8.27;100.00;101083.94;4993077;28;19920;-66
2022/12/28 11:21:43;;;;;;;;;;;;;;;8.35;100.00;101090.78;4996357;28;19921;-66
2022/12/28 11:24:15;;;;;;;;;;;;;;;8.24;100.00;101076.25;4996170;28;19917;-66
2022/12/28 11:26:46;;;;;;;;;;;;;;;8.29;100.00;101061.53;4995413;28;20269;-66
2022/12/28 11:29:13;;;;;;;;;;;;;;;8.27;100.00;101077.91;4997547;28;20400;-66
2022/12/28 11:31:42;;;;;;;;;;;;;;;8.25;100.00;101056.44;4985768;28;19921;-66
2022/12/28 11:34:14;;;;;;;;;;;;;;;8.30;100.00;101070.16;4985958;28;19945;-66
2022/12/28 11:36:40;;;;;;;;;;;;;;;8.26;100.00;101065.88;4996604;28;19913;-66
2022/12/28 11:39:28;;;;;;;;;;;;;;;8.25;100.00;101061.59;4997348;28;19920;-66
2022/12/28 11:41:54;;;;;;;;;;;;;;;8.29;100.00;101058.97;4987579;28;19952;-66
2022/12/28 11:44:29;;;;;;;;;;;;;;;8.32;100.00;101043.44;4995726;28;19967;-66
2022/12/28 11:47:12;;;;;;;;;;;;;;;8.31;100.00;101051.22;4990079;28;19914;-66
2022/12/28 11:49:37;;;;;;;;;;;;;;;8.35;100.00;101041.72;4992987;28;19914;-66
2022/12/28 11:52:15;;;;;;;;;;;;;;;8.38;100.00;101039.97;4996260;28;19936;-66
2022/12/28 11:55:01;;;;;;;;;;;;;;;8.33;100.00;101034.84;4996491;28;20344;-66
2022/12/28 11:57:40;;;;;;;;;;;;;;;8.40;100.00;101030.44;4986434;28;19914;-66
2022/12/28 12:00:20;;;;;;;;;;;;;;;8.33;100.00;101033.97;4995387;28;19917;-66
2022/12/28 12:02:46;;;;;;;;;;;;;;;8.33;100.00;101033.97;4992861;28;19913;-67
2022/12/28 12:05:50;;;;;;;;;;;;;;;8.35;100.00;101015.88;5002382;28;19924;-66
2022/12/28 12:08:15;;;;;;;;;;;;;;;8.30;100.00;101016.81;4891813;29;20526;-66
2022/12/28 12:10:43;;;;;;;;;;;;;;;8.26;100.00;101002.16;4897460;29;20005;-66
2022/12/28 12:13:23;;;;;;;;;;;;;;;8.28;100.00;101010.75;4941876;28;20104;-66
2022/12/28 12:15:49;;;;;;;;;;;;;;;8.26;100.00;101011.63;4985420;28;19976;-66
2022/12/28 12:18:20;;;;;;;;;;;;;;;8.25;100.00;101015.13;4989397;28;19910;-66
2022/12/28 12:21:06;;;;;;;;;;;;;;;8.26;100.00;100999.59;4991655;28;19913;-66
2022/12/28 12:23:46;;;;;;;;;;;;;;;8.35;100.00;101001.25;4996331;28;19914;-66
2022/12/28 12:26:26;;;;;;;;;;;;;;;8.29;100.00;100999.56;4992660;28;19928;-66
2022/12/28 12:28:54;;;;;;;;;;;;;;;8.33;100.00;100984.91;4996625;28;19910;-66
2022/12/28 12:31:25;;;;;;;;;;;;;;;8.37;100.00;100988.31;4994179;28;19921;-66
2022/12/28 12:33:51;;;;;;;;;;;;;;;8.40;100.00;100988.25;4996374;28;20305;-65
2022/12/28 12:36:23;;;;;;;;;;;;;;;8.37;100.00;100973.69;4979797;28;19995;-66
2022/12/28 12:39:03;;;;;;;;;;;;;;;8.38;100.00;100966.78;4993888;28;19914;-66
2022/12/28 12:41:48;;;;;;;;;;;;;;;8.42;100.00;100958.97;4988534;28;20365;-65
2022/12/28 12:44:21;;;;;;;;;;;;;;;8.43;100.00;100960.69;4992696;28;20488;-65
2022/12/28 12:47:02;;;;;;;;;;;;;;;8.43;100.00;100957.25;4992990;28;19920;-66
2022/12/28 12:49:46;;;;;;;;;;;;;;;8.47;100.00;100952.00;4995598;28;19914;-66
2022/12/28 12:52:29;;;;;;;;;;;;;;;8.48;100.00;100943.38;4996565;28;20304;-66
2022/12/28 12:54:54;;;;;;;;;;;;;;;8.50;100.00;100939.06;4995687;28;20396;-65
2022/12/28 12:57:23;;;;;;;;;;;;;;;8.56;100.00;100926.06;4996681;28;19988;-65
2022/12/28 13:00:01;;;;;;;;;;;;;;;8.52;100.00;100921.81;4990459;28;20700;-65
2022/12/28 13:02:34;;;;;;;;;;;;;;;8.55;100.00;100916.59;4995668;28;19913;-65
2022/12/28 13:05:03;;;;;;;;;;;;;;;8.55;100.00;100914.00;4975561;28;20368;-65
2022/12/28 13:07:28;;;;;;;;;;;;;;;8.57;100.00;100907.09;4992974;28;19924;-65